sensor_id;sensor_type;location;lat;lon;timestamp;P1;durP1;ratioP1;P2;durP2;ratioP2
11171;SDS011;5642;50.830;12.082;2022-07-01T00:01:31;3.38;;;3.08;;
11171;SDS011;5642;50.830;12.082;2022-07-01T00:03:57;3.40;;;3.20;;
11171;SDS011;5642;50.830;12.082;2022-07-01T00:06:24;3.67;;;3.00;;
11171;SDS011;5642;50.830;12.082;2022-07-01T00:08:50;3.80;;;3.50;;
11171;SDS011;5642;50.830;12.082;2022-07-01T00:11:16;3.80;;;3.50;;
11171;SDS011;5642;50.830;12.082;2022-07-01T00:13:44;3.60;;;3.35;;
11171;SDS011;5642;50.830;12.082;2022-07-01T00:16:10;3.55;;;3.35;;
11171;SDS011;5642;50.830;12.082;2022-07-01T00:18:37;3.70;;;3.40;;
11171;SDS011;5642;50.830;12.082;2022-07-01T00:21:03;3.53;;;3.33;;
11171;SDS011;5642;50.830;12.082;2022-07-01T00:23:29;4.07;;;3.78;;
11171;SDS011;5642;50.830;12.082;2022-07-01T00:25:56;3.58;;;3.28;;
11171;SDS011;5642;50.830;12.082;2022-07-01T00:28:23;3.83;;;3.53;;
11171;SDS011;5642;50.830;12.082;2022-07-01T00:30:49;3.80;;;3.50;;
11171;SDS011;5642;50.830;12.082;2022-07-01T00:33:15;3.63;;;3.28;;
11171;SDS011;5642;50.830;12.082;2022-07-01T00:35:41;3.83;;;3.55;;
11171;SDS011;5642;50.830;12.082;2022-07-01T00:38:07;3.70;;;3.40;;
11171;SDS011;5642;50.830;12.082;2022-07-01T00:40:33;4.28;;;3.47;;
11171;SDS011;5642;50.830;12.082;2022-07-01T00:42:59;3.80;;;3.50;;
11171;SDS011;5642;50.830;12.082;2022-07-01T00:45:27;3.50;;;3.30;;
11171;SDS011;5642;50.830;12.082;2022-07-01T00:47:53;4.28;;;3.38;;
11171;SDS011;5642;50.830;12.082;2022-07-01T00:50:19;3.60;;;3.30;;
11171;SDS011;5642;50.830;12.082;2022-07-01T00:52:45;3.60;;;3.30;;
11171;SDS011;5642;50.830;12.082;2022-07-01T00:55:12;3.72;;;3.42;;
11171;SDS011;5642;50.830;12.082;2022-07-01T00:57:41;3.70;;;3.40;;
11171;SDS011;5642;50.830;12.082;2022-07-01T01:00:16;3.75;;;3.45;;
11171;SDS011;5642;50.830;12.082;2022-07-01T01:02:52;3.67;;;3.38;;
11171;SDS011;5642;50.830;12.082;2022-07-01T01:05:19;4.78;;;3.42;;
11171;SDS011;5642;50.830;12.082;2022-07-01T01:07:47;4.40;;;3.42;;
11171;SDS011;5642;50.830;12.082;2022-07-01T01:10:17;3.20;;;2.90;;
11171;SDS011;5642;50.830;12.082;2022-07-01T01:12:44;3.42;;;3.22;;
11171;SDS011;5642;50.830;12.082;2022-07-01T01:15:16;3.45;;;3.15;;
11171;SDS011;5642;50.830;12.082;2022-07-01T01:17:44;3.45;;;3.15;;
11171;SDS011;5642;50.830;12.082;2022-07-01T01:20:14;3.10;;;2.90;;
11171;SDS011;5642;50.830;12.082;2022-07-01T01:22:41;3.10;;;2.90;;
11171;SDS011;5642;50.830;12.082;2022-07-01T01:25:09;3.58;;;2.80;;
11171;SDS011;5642;50.830;12.082;2022-07-01T01:27:35;3.05;;;2.85;;
11171;SDS011;5642;50.830;12.082;2022-07-01T01:30:06;3.05;;;2.85;;
11171;SDS011;5642;50.830;12.082;2022-07-01T01:32:33;4.13;;;2.75;;
11171;SDS011;5642;50.830;12.082;2022-07-01T01:35:00;3.10;;;2.90;;
11171;SDS011;5642;50.830;12.082;2022-07-01T01:37:26;3.50;;;3.20;;
11171;SDS011;5642;50.830;12.082;2022-07-01T01:39:55;3.20;;;3.00;;
11171;SDS011;5642;50.830;12.082;2022-07-01T01:42:21;3.45;;;3.25;;
11171;SDS011;5642;50.830;12.082;2022-07-01T01:44:48;3.30;;;3.00;;
11171;SDS011;5642;50.830;12.082;2022-07-01T01:47:15;2.83;;;2.63;;
11171;SDS011;5642;50.830;12.082;2022-07-01T01:49:41;2.40;;;2.30;;
11171;SDS011;5642;50.830;12.082;2022-07-01T01:52:07;2.90;;;2.70;;
11171;SDS011;5642;50.830;12.082;2022-07-01T01:54:34;3.00;;;2.80;;
11171;SDS011;5642;50.830;12.082;2022-07-01T01:57:05;3.00;;;2.80;;
11171;SDS011;5642;50.830;12.082;2022-07-01T01:59:31;3.10;;;2.80;;
11171;SDS011;5642;50.830;12.082;2022-07-01T02:01:57;3.63;;;2.80;;
11171;SDS011;5642;50.830;12.082;2022-07-01T02:04:24;2.42;;;2.22;;
11171;SDS011;5642;50.830;12.082;2022-07-01T02:06:50;2.47;;;2.35;;
11171;SDS011;5642;50.830;12.082;2022-07-01T02:09:18;2.63;;;2.42;;
11171;SDS011;5642;50.830;12.082;2022-07-01T02:11:44;2.55;;;2.35;;
11171;SDS011;5642;50.830;12.082;2022-07-01T02:14:10;3.25;;;2.03;;
11171;SDS011;5642;50.830;12.082;2022-07-01T02:16:36;2.40;;;2.20;;
11171;SDS011;5642;50.830;12.082;2022-07-01T02:19:02;2.63;;;2.35;;
11171;SDS011;5642;50.830;12.082;2022-07-01T02:21:29;2.50;;;2.30;;
11171;SDS011;5642;50.830;12.082;2022-07-01T02:23:55;2.10;;;2.00;;
11171;SDS011;5642;50.830;12.082;2022-07-01T02:26:21;2.03;;;1.92;;
11171;SDS011;5642;50.830;12.082;2022-07-01T02:28:50;2.85;;;2.38;;
11171;SDS011;5642;50.830;12.082;2022-07-01T02:31:16;2.33;;;2.15;;
11171;SDS011;5642;50.830;12.082;2022-07-01T02:33:42;2.25;;;2.15;;
11171;SDS011;5642;50.830;12.082;2022-07-01T02:36:08;2.50;;;2.30;;
11171;SDS011;5642;50.830;12.082;2022-07-01T02:38:35;2.85;;;1.70;;
11171;SDS011;5642;50.830;12.082;2022-07-01T02:41:01;2.20;;;2.10;;
11171;SDS011;5642;50.830;12.082;2022-07-01T02:43:27;1.90;;;1.80;;
11171;SDS011;5642;50.830;12.082;2022-07-01T02:45:54;2.28;;;2.13;;
11171;SDS011;5642;50.830;12.082;2022-07-01T02:48:22;2.10;;;2.00;;
11171;SDS011;5642;50.830;12.082;2022-07-01T02:50:48;2.03;;;1.92;;
11171;SDS011;5642;50.830;12.082;2022-07-01T02:53:15;2.10;;;2.00;;
11171;SDS011;5642;50.830;12.082;2022-07-01T02:55:41;1.88;;;1.77;;
11171;SDS011;5642;50.830;12.082;2022-07-01T02:58:07;2.00;;;1.90;;
11171;SDS011;5642;50.830;12.082;2022-07-01T03:00:34;2.15;;;1.90;;
11171;SDS011;5642;50.830;12.082;2022-07-01T03:03:00;2.00;;;1.85;;
11171;SDS011;5642;50.830;12.082;2022-07-01T03:05:26;1.70;;;1.60;;
11171;SDS011;5642;50.830;12.082;2022-07-01T03:07:52;1.92;;;1.83;;
11171;SDS011;5642;50.830;12.082;2022-07-01T03:10:18;1.80;;;1.70;;
11171;SDS011;5642;50.830;12.082;2022-07-01T03:12:44;1.95;;;1.85;;
11171;SDS011;5642;50.830;12.082;2022-07-01T03:15:12;1.70;;;1.60;;
11171;SDS011;5642;50.830;12.082;2022-07-01T03:17:40;2.08;;;1.98;;
11171;SDS011;5642;50.830;12.082;2022-07-01T03:20:09;2.10;;;2.00;;
11171;SDS011;5642;50.830;12.082;2022-07-01T03:22:37;2.35;;;2.05;;
11171;SDS011;5642;50.830;12.082;2022-07-01T03:25:05;1.88;;;1.77;;
11171;SDS011;5642;50.830;12.082;2022-07-01T03:27:32;2.05;;;1.90;;
11171;SDS011;5642;50.830;12.082;2022-07-01T03:29:59;2.15;;;1.98;;
11171;SDS011;5642;50.830;12.082;2022-07-01T03:32:26;2.47;;;2.28;;
11171;SDS011;5642;50.830;12.082;2022-07-01T03:34:53;2.20;;;2.03;;
11171;SDS011;5642;50.830;12.082;2022-07-01T03:37:20;1.98;;;1.85;;
11171;SDS011;5642;50.830;12.082;2022-07-01T03:39:47;1.88;;;1.77;;
11171;SDS011;5642;50.830;12.082;2022-07-01T03:42:14;1.70;;;1.60;;
11171;SDS011;5642;50.830;12.082;2022-07-01T03:44:40;1.80;;;1.70;;
11171;SDS011;5642;50.830;12.082;2022-07-01T03:47:06;3.33;;;1.77;;
11171;SDS011;5642;50.830;12.082;2022-07-01T03:49:33;1.60;;;1.50;;
11171;SDS011;5642;50.830;12.082;2022-07-01T03:52:01;1.67;;;1.58;;
11171;SDS011;5642;50.830;12.082;2022-07-01T03:54:30;2.75;;;1.50;;
11171;SDS011;5642;50.830;12.082;2022-07-01T03:59:31;1.58;;;1.48;;
11171;SDS011;5642;50.830;12.082;2022-07-01T04:05:21;1.52;;;1.42;;
11171;SDS011;5642;50.830;12.082;2022-07-01T04:08:06;1.83;;;1.60;;
11171;SDS011;5642;50.830;12.082;2022-07-01T04:10:43;1.85;;;1.75;;
11171;SDS011;5642;50.830;12.082;2022-07-01T04:13:11;1.52;;;1.42;;
11171;SDS011;5642;50.830;12.082;2022-07-01T04:15:53;1.63;;;1.52;;
11171;SDS011;5642;50.830;12.082;2022-07-01T04:19:04;1.85;;;1.70;;
11171;SDS011;5642;50.830;12.082;2022-07-01T04:21:34;1.65;;;1.55;;
11171;SDS011;5642;50.830;12.082;2022-07-01T04:24:27;2.20;;;1.60;;
11171;SDS011;5642;50.830;12.082;2022-07-01T04:29:57;2.33;;;1.75;;
11171;SDS011;5642;50.830;12.082;2022-07-01T04:35:32;1.85;;;1.48;;
11171;SDS011;5642;50.830;12.082;2022-07-01T04:51:29;1.73;;;1.63;;
11171;SDS011;5642;50.830;12.082;2022-07-01T05:24:17;1.60;;;1.50;;
11171;SDS011;5642;50.830;12.082;2022-07-01T05:26:43;1.65;;;1.55;;
11171;SDS011;5642;50.830;12.082;2022-07-01T05:29:10;1.70;;;1.60;;
11171;SDS011;5642;50.830;12.082;2022-07-01T05:31:36;2.00;;;1.80;;
11171;SDS011;5642;50.830;12.082;2022-07-01T05:34:02;1.83;;;1.73;;
11171;SDS011;5642;50.830;12.082;2022-07-01T05:36:29;1.60;;;1.50;;
11171;SDS011;5642;50.830;12.082;2022-07-01T05:38:55;2.20;;;2.10;;
11171;SDS011;5642;50.830;12.082;2022-07-01T05:41:21;1.95;;;1.85;;
11171;SDS011;5642;50.830;12.082;2022-07-01T05:43:48;2.05;;;1.95;;
11171;SDS011;5642;50.830;12.082;2022-07-01T05:46:14;2.15;;;2.00;;
11171;SDS011;5642;50.830;12.082;2022-07-01T05:48:40;2.00;;;1.90;;
11171;SDS011;5642;50.830;12.082;2022-07-01T05:51:07;2.00;;;1.90;;
11171;SDS011;5642;50.830;12.082;2022-07-01T05:53:33;2.40;;;2.20;;
11171;SDS011;5642;50.830;12.082;2022-07-01T05:55:59;1.90;;;1.80;;
11171;SDS011;5642;50.830;12.082;2022-07-01T05:58:26;2.13;;;2.00;;
11171;SDS011;5642;50.830;12.082;2022-07-01T06:00:52;1.98;;;1.88;;
11171;SDS011;5642;50.830;12.082;2022-07-01T06:03:18;2.00;;;1.90;;
11171;SDS011;5642;50.830;12.082;2022-07-01T06:05:45;2.00;;;1.90;;
11171;SDS011;5642;50.830;12.082;2022-07-01T06:08:11;1.98;;;1.88;;
11171;SDS011;5642;50.830;12.082;2022-07-01T06:10:39;1.67;;;1.58;;
11171;SDS011;5642;50.830;12.082;2022-07-01T06:13:10;1.90;;;1.80;;
11171;SDS011;5642;50.830;12.082;2022-07-01T06:15:41;1.90;;;1.80;;
11171;SDS011;5642;50.830;12.082;2022-07-01T06:18:08;1.75;;;1.65;;
11171;SDS011;5642;50.830;12.082;2022-07-01T06:20:36;1.85;;;1.75;;
11171;SDS011;5642;50.830;12.082;2022-07-01T06:23:02;1.85;;;1.75;;
11171;SDS011;5642;50.830;12.082;2022-07-01T06:25:31;1.95;;;1.75;;
11171;SDS011;5642;50.830;12.082;2022-07-01T06:27:58;1.80;;;1.70;;
11171;SDS011;5642;50.830;12.082;2022-07-01T06:30:28;1.90;;;1.80;;
11171;SDS011;5642;50.830;12.082;2022-07-01T06:32:55;2.00;;;1.90;;
11171;SDS011;5642;50.830;12.082;2022-07-01T06:35:23;2.20;;;2.00;;
11171;SDS011;5642;50.830;12.082;2022-07-01T06:37:50;2.00;;;1.90;;
11171;SDS011;5642;50.830;12.082;2022-07-01T06:40:17;1.70;;;1.60;;
11171;SDS011;5642;50.830;12.082;2022-07-01T06:42:45;1.70;;;1.60;;
11171;SDS011;5642;50.830;12.082;2022-07-01T06:45:12;1.85;;;1.75;;
11171;SDS011;5642;50.830;12.082;2022-07-01T06:47:38;1.88;;;1.77;;
11171;SDS011;5642;50.830;12.082;2022-07-01T06:50:06;1.73;;;1.63;;
11171;SDS011;5642;50.830;12.082;2022-07-01T06:52:35;1.83;;;1.73;;
11171;SDS011;5642;50.830;12.082;2022-07-01T06:55:03;1.77;;;1.67;;
11171;SDS011;5642;50.830;12.082;2022-07-01T06:57:30;1.80;;;1.70;;
11171;SDS011;5642;50.830;12.082;2022-07-01T06:59:57;1.85;;;1.75;;
11171;SDS011;5642;50.830;12.082;2022-07-01T07:02:25;1.90;;;1.80;;
11171;SDS011;5642;50.830;12.082;2022-07-01T07:04:53;1.70;;;1.60;;
11171;SDS011;5642;50.830;12.082;2022-07-01T07:07:24;1.55;;;1.45;;
11171;SDS011;5642;50.830;12.082;2022-07-01T07:09:52;2.03;;;1.70;;
11171;SDS011;5642;50.830;12.082;2022-07-01T07:12:19;2.03;;;1.92;;
11171;SDS011;5642;50.830;12.082;2022-07-01T07:14:47;1.80;;;1.70;;
11171;SDS011;5642;50.830;12.082;2022-07-01T07:17:14;1.70;;;1.60;;
11171;SDS011;5642;50.830;12.082;2022-07-01T07:19:41;1.65;;;1.55;;
11171;SDS011;5642;50.830;12.082;2022-07-01T07:22:08;1.95;;;1.85;;
11171;SDS011;5642;50.830;12.082;2022-07-01T07:24:36;1.38;;;1.38;;
11171;SDS011;5642;50.830;12.082;2022-07-01T07:27:15;1.70;;;1.60;;
11171;SDS011;5642;50.830;12.082;2022-07-01T07:29:44;1.58;;;1.50;;
11171;SDS011;5642;50.830;12.082;2022-07-01T07:32:09;1.58;;;1.50;;
11171;SDS011;5642;50.830;12.082;2022-07-01T07:34:36;1.60;;;1.50;;
11171;SDS011;5642;50.830;12.082;2022-07-01T07:37:03;1.55;;;1.48;;
11171;SDS011;5642;50.830;12.082;2022-07-01T07:39:29;1.55;;;1.48;;
11171;SDS011;5642;50.830;12.082;2022-07-01T07:41:55;1.70;;;1.60;;
11171;SDS011;5642;50.830;12.082;2022-07-01T07:44:22;1.70;;;1.60;;
11171;SDS011;5642;50.830;12.082;2022-07-01T07:46:51;1.70;;;1.60;;
11171;SDS011;5642;50.830;12.082;2022-07-01T07:49:17;1.80;;;1.70;;
11171;SDS011;5642;50.830;12.082;2022-07-01T07:51:43;1.65;;;1.55;;
11171;SDS011;5642;50.830;12.082;2022-07-01T07:54:09;1.58;;;1.48;;
11171;SDS011;5642;50.830;12.082;2022-07-01T07:56:35;1.65;;;1.55;;
11171;SDS011;5642;50.830;12.082;2022-07-01T07:59:02;1.50;;;1.40;;
11171;SDS011;5642;50.830;12.082;2022-07-01T08:01:28;1.30;;;1.30;;
11171;SDS011;5642;50.830;12.082;2022-07-01T08:03:54;1.33;;;1.30;;
11171;SDS011;5642;50.830;12.082;2022-07-01T08:06:20;1.27;;;1.27;;
11171;SDS011;5642;50.830;12.082;2022-07-01T08:08:46;1.30;;;1.20;;
11171;SDS011;5642;50.830;12.082;2022-07-01T08:11:13;1.40;;;1.30;;
11171;SDS011;5642;50.830;12.082;2022-07-01T08:13:39;1.50;;;1.40;;
11171;SDS011;5642;50.830;12.082;2022-07-01T08:16:05;1.60;;;1.50;;
11171;SDS011;5642;50.830;12.082;2022-07-01T08:18:32;1.40;;;1.30;;
11171;SDS011;5642;50.830;12.082;2022-07-01T08:20:58;1.48;;;1.40;;
11171;SDS011;5642;50.830;12.082;2022-07-01T08:23:24;2.28;;;1.50;;
11171;SDS011;5642;50.830;12.082;2022-07-01T08:25:50;1.20;;;1.20;;
11171;SDS011;5642;50.830;12.082;2022-07-01T08:28:17;1.10;;;1.10;;
11171;SDS011;5642;50.830;12.082;2022-07-01T08:30:44;1.30;;;1.20;;
11171;SDS011;5642;50.830;12.082;2022-07-01T08:33:10;1.10;;;1.10;;
11171;SDS011;5642;50.830;12.082;2022-07-01T08:35:37;1.15;;;1.15;;
11171;SDS011;5642;50.830;12.082;2022-07-01T08:38:04;1.05;;;1.05;;
11171;SDS011;5642;50.830;12.082;2022-07-01T08:40:31;0.93;;;0.93;;
11171;SDS011;5642;50.830;12.082;2022-07-01T08:42:58;1.30;;;1.30;;
11171;SDS011;5642;50.830;12.082;2022-07-01T08:45:26;3.13;;;1.30;;
11171;SDS011;5642;50.830;12.082;2022-07-01T08:47:56;1.25;;;1.20;;
11171;SDS011;5642;50.830;12.082;2022-07-01T08:50:27;1.30;;;1.20;;
11171;SDS011;5642;50.830;12.082;2022-07-01T08:52:54;1.38;;;1.27;;
11171;SDS011;5642;50.830;12.082;2022-07-01T08:55:21;1.60;;;1.50;;
11171;SDS011;5642;50.830;12.082;2022-07-01T08:57:48;1.25;;;1.25;;
11171;SDS011;5642;50.830;12.082;2022-07-01T09:00:14;1.20;;;1.10;;
11171;SDS011;5642;50.830;12.082;2022-07-01T09:02:52;1.05;;;1.05;;
11171;SDS011;5642;50.830;12.082;2022-07-01T09:05:22;1.08;;;1.08;;
11171;SDS011;5642;50.830;12.082;2022-07-01T09:07:54;1.33;;;1.30;;
11171;SDS011;5642;50.830;12.082;2022-07-01T09:10:31;1.00;;;1.00;;
11171;SDS011;5642;50.830;12.082;2022-07-01T09:13:04;1.00;;;1.00;;
11171;SDS011;5642;50.830;12.082;2022-07-01T09:15:31;1.05;;;1.05;;
11171;SDS011;5642;50.830;12.082;2022-07-01T09:18:05;1.20;;;1.20;;
11171;SDS011;5642;50.830;12.082;2022-07-01T09:20:38;1.08;;;1.05;;
11171;SDS011;5642;50.830;12.082;2022-07-01T09:23:13;1.33;;;1.23;;
11171;SDS011;5642;50.830;12.082;2022-07-01T09:25:42;1.42;;;1.10;;
11171;SDS011;5642;50.830;12.082;2022-07-01T09:28:14;1.20;;;1.20;;
11171;SDS011;5642;50.830;12.082;2022-07-01T09:31:03;1.42;;;1.33;;
11171;SDS011;5642;50.830;12.082;2022-07-01T09:33:28;1.30;;;1.20;;
11171;SDS011;5642;50.830;12.082;2022-07-01T09:35:55;1.55;;;1.23;;
11171;SDS011;5642;50.830;12.082;2022-07-01T09:38:23;1.30;;;1.20;;
11171;SDS011;5642;50.830;12.082;2022-07-01T09:40:51;1.17;;;1.08;;
11171;SDS011;5642;50.830;12.082;2022-07-01T09:43:25;1.13;;;1.13;;
11171;SDS011;5642;50.830;12.082;2022-07-01T09:51:01;1.20;;;1.10;;
11171;SDS011;5642;50.830;12.082;2022-07-01T09:53:32;1.25;;;1.20;;
11171;SDS011;5642;50.830;12.082;2022-07-01T09:55:59;1.00;;;1.00;;
11171;SDS011;5642;50.830;12.082;2022-07-01T09:58:25;0.90;;;0.90;;
11171;SDS011;5642;50.830;12.082;2022-07-01T10:00:52;0.88;;;0.88;;
11171;SDS011;5642;50.830;12.082;2022-07-01T10:03:19;0.70;;;0.70;;
11171;SDS011;5642;50.830;12.082;2022-07-01T10:11:34;0.70;;;0.70;;
11171;SDS011;5642;50.830;12.082;2022-07-01T10:14:23;0.60;;;0.60;;
11171;SDS011;5642;50.830;12.082;2022-07-01T10:16:52;0.60;;;0.60;;
11171;SDS011;5642;50.830;12.082;2022-07-01T10:19:30;0.50;;;0.50;;
11171;SDS011;5642;50.830;12.082;2022-07-01T10:22:44;0.50;;;0.50;;
11171;SDS011;5642;50.830;12.082;2022-07-01T10:24:55;0.60;;;0.60;;
11171;SDS011;5642;50.830;12.082;2022-07-01T10:27:46;1.15;;;0.50;;
11171;SDS011;5642;50.830;12.082;2022-07-01T10:30:48;0.52;;;0.52;;
11171;SDS011;5642;50.830;12.082;2022-07-01T10:33:29;0.38;;;0.38;;
11171;SDS011;5642;50.830;12.082;2022-07-01T10:36:09;0.45;;;0.45;;
11171;SDS011;5642;50.830;12.082;2022-07-01T10:39:22;0.65;;;0.60;;
11171;SDS011;5642;50.830;12.082;2022-07-01T10:41:54;0.52;;;0.52;;
11171;SDS011;5642;50.830;12.082;2022-07-01T10:44:24;0.70;;;0.70;;
11171;SDS011;5642;50.830;12.082;2022-07-01T10:47:05;0.50;;;0.50;;
11171;SDS011;5642;50.830;12.082;2022-07-01T10:49:50;0.60;;;0.60;;
11171;SDS011;5642;50.830;12.082;2022-07-01T10:52:21;0.55;;;0.55;;
11171;SDS011;5642;50.830;12.082;2022-07-01T10:54:51;0.70;;;0.70;;
11171;SDS011;5642;50.830;12.082;2022-07-01T10:57:29;0.88;;;0.80;;
11171;SDS011;5642;50.830;12.082;2022-07-01T11:02:30;0.82;;;0.80;;
11171;SDS011;5642;50.830;12.082;2022-07-01T11:05:01;0.80;;;0.80;;
11171;SDS011;5642;50.830;12.082;2022-07-01T11:07:33;0.82;;;0.82;;
11171;SDS011;5642;50.830;12.082;2022-07-01T11:10:03;0.70;;;0.70;;
11171;SDS011;5642;50.830;12.082;2022-07-01T11:12:33;1.33;;;0.93;;
11171;SDS011;5642;50.830;12.082;2022-07-01T11:15:01;0.82;;;0.82;;
11171;SDS011;5642;50.830;12.082;2022-07-01T11:17:31;1.00;;;1.00;;
11171;SDS011;5642;50.830;12.082;2022-07-01T11:19:58;0.95;;;0.95;;
11171;SDS011;5642;50.830;12.082;2022-07-01T11:22:33;0.82;;;0.80;;
11171;SDS011;5642;50.830;12.082;2022-07-01T11:25:02;0.90;;;0.90;;
11171;SDS011;5642;50.830;12.082;2022-07-01T11:27:33;0.80;;;0.80;;
11171;SDS011;5642;50.830;12.082;2022-07-01T11:30:04;0.80;;;0.80;;
11171;SDS011;5642;50.830;12.082;2022-07-01T11:32:40;1.00;;;1.00;;
11171;SDS011;5642;50.830;12.082;2022-07-01T11:35:19;1.00;;;0.98;;
11171;SDS011;5642;50.830;12.082;2022-07-01T11:38:14;0.95;;;0.93;;
11171;SDS011;5642;50.830;12.082;2022-07-01T11:41:06;1.10;;;1.00;;
11171;SDS011;5642;50.830;12.082;2022-07-01T11:43:36;1.20;;;1.10;;
11171;SDS011;5642;50.830;12.082;2022-07-01T11:46:06;1.08;;;0.98;;
11171;SDS011;5642;50.830;12.082;2022-07-01T11:48:42;1.20;;;1.20;;
11171;SDS011;5642;50.830;12.082;2022-07-01T11:51:25;1.10;;;1.10;;
11171;SDS011;5642;50.830;12.082;2022-07-01T11:53:54;1.17;;;1.17;;
11171;SDS011;5642;50.830;12.082;2022-07-01T11:56:29;1.25;;;1.23;;
11171;SDS011;5642;50.830;12.082;2022-07-01T11:58:57;1.13;;;1.13;;
11171;SDS011;5642;50.830;12.082;2022-07-01T12:01:27;1.45;;;1.35;;
11171;SDS011;5642;50.830;12.082;2022-07-01T12:03:59;1.10;;;1.10;;
11171;SDS011;5642;50.830;12.082;2022-07-01T12:06:29;1.20;;;1.20;;
11171;SDS011;5642;50.830;12.082;2022-07-01T12:08:57;1.10;;;1.10;;
11171;SDS011;5642;50.830;12.082;2022-07-01T12:11:26;1.20;;;1.20;;
11171;SDS011;5642;50.830;12.082;2022-07-01T12:13:53;1.30;;;1.20;;
11171;SDS011;5642;50.830;12.082;2022-07-01T12:16:36;0.98;;;0.98;;
11171;SDS011;5642;50.830;12.082;2022-07-01T12:19:07;1.25;;;1.20;;
11171;SDS011;5642;50.830;12.082;2022-07-01T12:21:57;1.20;;;1.20;;
11171;SDS011;5642;50.830;12.082;2022-07-01T12:24:27;1.50;;;1.40;;
11171;SDS011;5642;50.830;12.082;2022-07-01T12:29:27;1.60;;;1.50;;
11171;SDS011;5642;50.830;12.082;2022-07-01T12:31:59;1.63;;;1.52;;
11171;SDS011;5642;50.830;12.082;2022-07-01T12:34:43;1.58;;;1.48;;
11171;SDS011;5642;50.830;12.082;2022-07-01T12:37:19;1.63;;;1.52;;
11171;SDS011;5642;50.830;12.082;2022-07-01T12:39:55;1.48;;;1.38;;
11171;SDS011;5642;50.830;12.082;2022-07-01T12:42:34;1.67;;;1.58;;
11171;SDS011;5642;50.830;12.082;2022-07-01T12:45:05;1.50;;;1.40;;
11171;SDS011;5642;50.830;12.082;2022-07-01T12:47:36;1.40;;;1.35;;
11171;SDS011;5642;50.830;12.082;2022-07-01T12:52:37;1.33;;;1.30;;
11171;SDS011;5642;50.830;12.082;2022-07-01T12:55:17;1.40;;;1.20;;
11171;SDS011;5642;50.830;12.082;2022-07-01T12:57:47;1.60;;;1.50;;
11171;SDS011;5642;50.830;12.082;2022-07-01T13:00:14;1.45;;;1.35;;
11171;SDS011;5642;50.830;12.082;2022-07-01T13:02:42;1.30;;;1.20;;
11171;SDS011;5642;50.830;12.082;2022-07-01T13:05:09;1.45;;;1.35;;
11171;SDS011;5642;50.830;12.082;2022-07-01T13:07:35;1.30;;;1.20;;
11171;SDS011;5642;50.830;12.082;2022-07-01T13:10:01;1.75;;;1.23;;
11171;SDS011;5642;50.830;12.082;2022-07-01T13:12:28;1.00;;;1.00;;
11171;SDS011;5642;50.830;12.082;2022-07-01T13:14:54;1.17;;;1.17;;
11171;SDS011;5642;50.830;12.082;2022-07-01T13:17:24;1.02;;;1.02;;
11171;SDS011;5642;50.830;12.082;2022-07-01T13:19:51;0.90;;;0.90;;
11171;SDS011;5642;50.830;12.082;2022-07-01T13:22:17;1.00;;;1.00;;
11171;SDS011;5642;50.830;12.082;2022-07-01T13:24:46;1.10;;;1.08;;
11171;SDS011;5642;50.830;12.082;2022-07-01T13:27:12;0.90;;;0.90;;
11171;SDS011;5642;50.830;12.082;2022-07-01T13:29:38;1.08;;;1.08;;
11171;SDS011;5642;50.830;12.082;2022-07-01T13:32:06;1.00;;;1.00;;
11171;SDS011;5642;50.830;12.082;2022-07-01T13:34:33;0.90;;;0.90;;
11171;SDS011;5642;50.830;12.082;2022-07-01T13:37:02;0.90;;;0.90;;
11171;SDS011;5642;50.830;12.082;2022-07-01T13:39:29;1.02;;;1.02;;
11171;SDS011;5642;50.830;12.082;2022-07-01T13:41:56;1.83;;;1.00;;
11171;SDS011;5642;50.830;12.082;2022-07-01T13:44:22;0.90;;;0.90;;
11171;SDS011;5642;50.830;12.082;2022-07-01T13:46:49;0.90;;;0.90;;
11171;SDS011;5642;50.830;12.082;2022-07-01T13:49:15;0.80;;;0.80;;
11171;SDS011;5642;50.830;12.082;2022-07-01T13:51:41;0.85;;;0.85;;
11171;SDS011;5642;50.830;12.082;2022-07-01T13:54:10;0.88;;;0.88;;
11171;SDS011;5642;50.830;12.082;2022-07-01T13:56:36;1.00;;;1.00;;
11171;SDS011;5642;50.830;12.082;2022-07-01T13:59:02;0.93;;;0.93;;
11171;SDS011;5642;50.830;12.082;2022-07-01T14:01:30;0.90;;;0.90;;
11171;SDS011;5642;50.830;12.082;2022-07-01T14:03:57;1.00;;;1.00;;
11171;SDS011;5642;50.830;12.082;2022-07-01T14:06:23;0.75;;;0.75;;
11171;SDS011;5642;50.830;12.082;2022-07-01T14:08:49;0.80;;;0.80;;
11171;SDS011;5642;50.830;12.082;2022-07-01T14:11:16;0.85;;;0.85;;
11171;SDS011;5642;50.830;12.082;2022-07-01T14:13:42;0.98;;;0.98;;
11171;SDS011;5642;50.830;12.082;2022-07-01T14:16:08;0.77;;;0.77;;
11171;SDS011;5642;50.830;12.082;2022-07-01T14:18:35;1.30;;;1.13;;
11171;SDS011;5642;50.830;12.082;2022-07-01T14:21:04;0.77;;;0.77;;
11171;SDS011;5642;50.830;12.082;2022-07-01T14:23:31;0.90;;;0.90;;
11171;SDS011;5642;50.830;12.082;2022-07-01T14:25:57;0.90;;;0.90;;
11171;SDS011;5642;50.830;12.082;2022-07-01T14:28:24;1.10;;;1.10;;
11171;SDS011;5642;50.830;12.082;2022-07-01T14:30:50;1.00;;;1.00;;
11171;SDS011;5642;50.830;12.082;2022-07-01T14:33:16;0.95;;;0.95;;
11171;SDS011;5642;50.830;12.082;2022-07-01T14:35:44;1.08;;;0.88;;
11171;SDS011;5642;50.830;12.082;2022-07-01T14:38:10;1.13;;;1.00;;
11171;SDS011;5642;50.830;12.082;2022-07-01T14:40:36;1.00;;;0.93;;
11171;SDS011;5642;50.830;12.082;2022-07-01T14:43:03;0.90;;;0.90;;
11171;SDS011;5642;50.830;12.082;2022-07-01T14:45:30;0.93;;;0.93;;
11171;SDS011;5642;50.830;12.082;2022-07-01T14:47:56;1.10;;;1.10;;
11171;SDS011;5642;50.830;12.082;2022-07-01T14:50:23;1.00;;;1.00;;
11171;SDS011;5642;50.830;12.082;2022-07-01T14:52:50;1.52;;;0.98;;
11171;SDS011;5642;50.830;12.082;2022-07-01T14:55:16;1.00;;;1.00;;
11171;SDS011;5642;50.830;12.082;2022-07-01T14:57:42;1.10;;;1.10;;
11171;SDS011;5642;50.830;12.082;2022-07-01T15:00:09;0.98;;;0.98;;
11171;SDS011;5642;50.830;12.082;2022-07-01T15:02:36;1.20;;;1.20;;
11171;SDS011;5642;50.830;12.082;2022-07-01T15:05:03;1.00;;;1.00;;
11171;SDS011;5642;50.830;12.082;2022-07-01T15:07:32;1.30;;;1.20;;
11171;SDS011;5642;50.830;12.082;2022-07-01T15:09:58;1.38;;;1.27;;
11171;SDS011;5642;50.830;12.082;2022-07-01T15:12:27;1.20;;;1.20;;
11171;SDS011;5642;50.830;12.082;2022-07-01T15:14:54;1.20;;;1.10;;
11171;SDS011;5642;50.830;12.082;2022-07-01T15:17:24;1.20;;;1.20;;
11171;SDS011;5642;50.830;12.082;2022-07-01T15:19:50;1.30;;;1.30;;
11171;SDS011;5642;50.830;12.082;2022-07-01T15:22:17;1.50;;;1.40;;
11171;SDS011;5642;50.830;12.082;2022-07-01T15:24:43;2.50;;;1.50;;
11171;SDS011;5642;50.830;12.082;2022-07-01T15:27:10;1.52;;;1.45;;
11171;SDS011;5642;50.830;12.082;2022-07-01T15:29:36;1.48;;;1.38;;
11171;SDS011;5642;50.830;12.082;2022-07-01T15:32:03;1.50;;;1.40;;
11171;SDS011;5642;50.830;12.082;2022-07-01T15:34:30;1.38;;;1.30;;
11171;SDS011;5642;50.830;12.082;2022-07-01T15:36:57;1.50;;;1.40;;
11171;SDS011;5642;50.830;12.082;2022-07-01T15:39:22;1.42;;;1.33;;
11171;SDS011;5642;50.830;12.082;2022-07-01T15:41:49;1.50;;;1.40;;
11171;SDS011;5642;50.830;12.082;2022-07-01T15:44:15;1.27;;;1.23;;
11171;SDS011;5642;50.830;12.082;2022-07-01T15:46:43;1.35;;;1.25;;
11171;SDS011;5642;50.830;12.082;2022-07-01T15:49:09;1.20;;;1.20;;
11171;SDS011;5642;50.830;12.082;2022-07-01T15:51:37;1.52;;;1.42;;
11171;SDS011;5642;50.830;12.082;2022-07-01T15:54:04;1.40;;;1.30;;
11171;SDS011;5642;50.830;12.082;2022-07-01T15:56:34;1.60;;;1.50;;
11171;SDS011;5642;50.830;12.082;2022-07-01T15:59:02;1.92;;;1.65;;
11171;SDS011;5642;50.830;12.082;2022-07-01T16:01:28;1.40;;;1.40;;
11171;SDS011;5642;50.830;12.082;2022-07-01T16:03:56;1.63;;;1.52;;
11171;SDS011;5642;50.830;12.082;2022-07-01T16:06:24;1.75;;;1.65;;
11171;SDS011;5642;50.830;12.082;2022-07-01T16:08:53;1.60;;;1.50;;
11171;SDS011;5642;50.830;12.082;2022-07-01T16:11:26;1.70;;;1.60;;
11171;SDS011;5642;50.830;12.082;2022-07-01T16:13:55;1.60;;;1.50;;